createdAt,value
2023-05-24T00:01:37.692Z,100.00
2023-05-24T00:04:05.584Z,100.00
2023-05-24T00:06:34.897Z,100.00
2023-05-24T00:09:02.758Z,100.00
2023-05-24T00:11:31.008Z,100.00
2023-05-24T00:14:00.157Z,100.00
2023-05-24T00:16:27.952Z,100.00
2023-05-24T00:18:55.805Z,100.00
2023-05-24T00:21:23.586Z,100.00
2023-05-24T00:23:51.920Z,100.00
2023-05-24T00:26:19.772Z,100.00
2023-05-24T00:28:54.103Z,100.00
2023-05-24T00:31:23.294Z,100.00
2023-05-24T00:33:51.147Z,100.00
2023-05-24T00:36:19.761Z,100.00
2023-05-24T00:38:49.028Z,100.00
2023-05-24T00:41:17.466Z,100.00
2023-05-24T00:43:45.325Z,100.00
2023-05-24T00:46:17.506Z,100.00
2023-05-24T00:48:46.843Z,100.00
2023-05-24T00:51:14.743Z,100.00
2023-05-24T00:53:43.032Z,100.00
2023-05-24T00:56:10.873Z,100.00
2023-05-24T00:58:38.739Z,100.00
2023-05-24T01:01:07.020Z,100.00
2023-05-24T01:03:35.603Z,100.00
2023-05-24T01:06:06.149Z,100.00
2023-05-24T01:08:58.975Z,100.00
2023-05-24T01:11:28.690Z,100.00
2023-05-24T01:14:00.367Z,100.00
2023-05-24T01:16:31.985Z,100.00
2023-05-24T01:19:02.664Z,100.00
2023-05-24T01:21:39.639Z,100.00
2023-05-24T01:24:15.664Z,100.00
2023-05-24T01:26:46.935Z,100.00
2023-05-24T01:29:16.255Z,100.00
2023-05-24T01:31:44.114Z,100.00
2023-05-24T01:34:12.720Z,100.00
2023-05-24T01:36:40.953Z,100.00
2023-05-24T01:39:09.453Z,100.00
2023-05-24T01:41:39.762Z,100.00
2023-05-24T01:48:04.601Z,100.00
2023-05-24T01:50:33.281Z,100.00
2023-05-24T01:53:03.726Z,100.00
2023-05-24T01:55:31.918Z,100.00
2023-05-24T01:58:01.810Z,100.00
2023-05-24T02:00:30.047Z,100.00
2023-05-24T02:02:57.934Z,100.00
2023-05-24T02:05:27.207Z,100.00
2023-05-24T02:07:56.388Z,100.00
2023-05-24T02:10:24.987Z,100.00
2023-05-24T02:12:52.696Z,100.00
2023-05-24T02:15:20.783Z,100.00
2023-05-24T02:17:48.734Z,100.00
2023-05-24T02:20:17.504Z,100.00
2023-05-24T02:22:46.695Z,100.00
2023-05-24T02:25:14.550Z,100.00
2023-05-24T02:27:47.039Z,100.00
2023-05-24T02:30:14.980Z,100.00
2023-05-24T02:32:42.874Z,100.00
2023-05-24T02:35:10.726Z,100.00
2023-05-24T02:37:40.864Z,100.00
2023-05-24T02:40:11.038Z,100.00
2023-05-24T02:42:38.803Z,100.00
2023-05-24T02:45:07.931Z,100.00
2023-05-24T02:47:35.737Z,100.00
2023-05-24T02:50:03.545Z,100.00
2023-05-24T02:52:31.649Z,100.00
2023-05-24T02:54:59.454Z,100.00
2023-05-24T02:57:29.722Z,100.00
2023-05-24T02:59:58.003Z,100.00
2023-05-24T03:02:28.625Z,100.00
2023-05-24T03:04:56.545Z,100.00
2023-05-24T03:07:24.421Z,100.00
2023-05-24T03:09:52.337Z,100.00
2023-05-24T03:12:21.428Z,100.00
2023-05-24T03:14:50.765Z,100.00
2023-05-24T03:17:18.625Z,100.00
2023-05-24T03:19:46.431Z,100.00
2023-05-24T03:22:14.404Z,100.00
2023-05-24T03:24:42.195Z,100.00
2023-05-24T03:27:12.429Z,100.00
2023-05-24T03:29:40.193Z,100.00
2023-05-24T03:32:09.773Z,100.00
2023-05-24T03:34:37.557Z,100.00
2023-05-24T03:37:06.277Z,100.00
2023-05-24T03:39:34.108Z,100.00
2023-05-24T03:42:22.417Z,100.00
2023-05-24T03:44:52.009Z,100.00
2023-05-24T03:47:21.498Z,100.00
2023-05-24T03:49:49.348Z,100.00
2023-05-24T03:52:17.121Z,100.00
2023-05-24T03:54:45.869Z,100.00
2023-05-24T03:57:13.801Z,100.00
2023-05-24T03:59:41.657Z,100.00
2023-05-24T04:02:09.659Z,100.00
2023-05-24T04:04:38.898Z,100.00
2023-05-24T04:07:07.969Z,100.00
2023-05-24T04:09:35.874Z,100.00
2023-05-24T04:12:03.730Z,100.00
2023-05-24T04:14:31.490Z,100.00
2023-05-24T04:16:59.301Z,100.00
2023-05-24T04:19:27.086Z,100.00
2023-05-24T04:21:56.184Z,100.00
2023-05-24T04:24:23.993Z,100.00
2023-05-24T04:26:51.749Z,100.00
2023-05-24T04:29:19.996Z,100.00
2023-05-24T04:31:49.197Z,100.00
2023-05-24T04:34:17.200Z,100.00
2023-05-24T04:36:44.966Z,100.00
2023-05-24T04:39:14.113Z,100.00
2023-05-24T04:41:42.045Z,100.00
2023-05-24T04:44:09.871Z,100.00
2023-05-24T04:46:37.703Z,100.00
2023-05-24T04:49:08.427Z,100.00
2023-05-24T04:51:38.670Z,100.00
2023-05-24T04:54:08.985Z,100.00
2023-05-24T04:56:39.035Z,100.00
2023-05-24T04:59:06.895Z,100.00
2023-05-24T05:01:34.889Z,100.00
2023-05-24T05:04:04.538Z,100.00
2023-05-24T05:06:34.103Z,100.00
2023-05-24T05:09:01.956Z,100.00
2023-05-24T05:11:29.723Z,100.00
2023-05-24T05:13:58.840Z,100.00
2023-05-24T05:16:26.707Z,100.00
2023-05-24T05:18:54.458Z,100.00
2023-05-24T05:21:22.228Z,100.00
2023-05-24T05:23:50.021Z,100.00
2023-05-24T05:26:17.791Z,100.00
2023-05-24T05:28:46.262Z,100.00
2023-05-24T05:31:15.431Z,100.00
2023-05-24T05:33:43.199Z,100.00
2023-05-24T05:36:11.013Z,100.00
2023-05-24T05:38:38.749Z,100.00
2023-05-24T05:41:07.334Z,100.00
2023-05-24T05:43:35.187Z,100.00
2023-05-24T05:46:02.980Z,100.00
2023-05-24T05:48:32.109Z,100.00
2023-05-24T05:50:59.863Z,100.00
2023-05-24T05:53:27.616Z,100.00
2023-05-24T05:55:55.332Z,100.00
2023-05-24T05:58:23.288Z,100.00
2023-05-24T06:00:51.068Z,100.00
2023-05-24T06:03:19.153Z,100.00
2023-05-24T06:05:48.630Z,100.00
2023-05-24T06:08:16.530Z,100.00
2023-05-24T06:10:44.636Z,100.00
2023-05-24T06:13:36.112Z,100.00
2023-05-24T06:16:04.082Z,100.00
2023-05-24T06:18:32.679Z,100.00
2023-05-24T06:21:01.959Z,100.00
2023-05-24T06:23:30.014Z,100.00
2023-05-24T06:25:57.974Z,100.00
2023-05-24T06:28:25.833Z,100.00
2023-05-24T06:30:53.677Z,100.00
2023-05-24T06:33:22.282Z,100.00
2023-05-24T06:35:50.090Z,100.00
2023-05-24T06:38:19.213Z,100.00
2023-05-24T06:40:48.645Z,100.00
2023-05-24T06:43:17.450Z,100.00
2023-05-24T06:45:45.349Z,100.00
2023-05-24T06:48:13.277Z,100.00
2023-05-24T06:50:42.829Z,100.00
2023-05-24T06:53:11.005Z,100.00
2023-05-24T06:55:40.105Z,100.00
2023-05-24T06:58:07.973Z,100.00
2023-05-24T07:00:35.760Z,100.00
2023-05-24T07:03:03.711Z,100.00
2023-05-24T07:05:31.601Z,100.00
2023-05-24T07:07:59.447Z,100.00
2023-05-24T07:10:27.248Z,100.00
2023-05-24T07:12:56.563Z,100.00
2023-05-24T07:15:24.324Z,100.00
2023-05-24T07:17:52.860Z,100.00
2023-05-24T07:20:20.723Z,100.00
2023-05-24T07:22:48.533Z,100.00
2023-05-24T07:25:16.525Z,100.00
2023-05-24T07:27:44.408Z,100.00
2023-05-24T07:30:27.696Z,100.00
2023-05-24T07:33:00.432Z,100.00
2023-05-24T07:35:29.452Z,100.00
2023-05-24T07:37:57.364Z,100.00
2023-05-24T07:40:25.185Z,100.00
2023-05-24T07:42:52.981Z,100.00
2023-05-24T07:45:22.214Z,100.00
2023-05-24T07:47:50.125Z,100.00
2023-05-24T07:50:18.790Z,100.00
2023-05-24T07:52:46.586Z,100.00
2023-05-24T07:55:14.571Z,100.00
2023-05-24T07:57:42.728Z,100.00
2023-05-24T08:00:14.826Z,100.00
2023-05-24T08:02:46.483Z,100.00
2023-05-24T08:05:14.527Z,100.00
2023-05-24T08:07:42.781Z,100.00
2023-05-24T08:10:12.657Z,100.00
2023-05-24T08:12:40.607Z,100.00
2023-05-24T08:15:09.312Z,100.00
2023-05-24T08:17:37.349Z,100.00
2023-05-24T08:20:08.905Z,100.00
2023-05-24T08:22:37.387Z,100.00
2023-05-24T08:25:06.220Z,100.00
2023-05-24T08:27:34.086Z,100.00
2023-05-24T08:30:01.833Z,100.00
2023-05-24T08:32:29.768Z,100.00
2023-05-24T08:35:06.723Z,100.00
2023-05-24T08:37:40.178Z,100.00
2023-05-24T08:40:10.057Z,100.00
2023-05-24T08:42:38.739Z,100.00
2023-05-24T08:45:09.805Z,100.00
2023-05-24T08:47:37.863Z,100.00
2023-05-24T08:50:06.256Z,100.00
2023-05-24T08:53:02.145Z,100.00
2023-05-24T08:55:33.047Z,100.00
2023-05-24T08:58:01.326Z,100.00
2023-05-24T09:00:29.218Z,100.00
2023-05-24T09:02:58.148Z,100.00
2023-05-24T09:05:26.121Z,100.00
2023-05-24T09:07:54.009Z,100.00
2023-05-24T09:10:28.355Z,100.00
2023-05-24T09:12:58.552Z,100.00
2023-05-24T09:15:28.621Z,100.00
2023-05-24T09:17:56.536Z,100.00
2023-05-24T09:20:24.406Z,100.00
2023-05-24T09:22:53.061Z,100.00
2023-05-24T09:25:21.536Z,100.00
2023-05-24T09:27:54.402Z,100.00
2023-05-24T09:30:22.260Z,100.00
2023-05-24T09:32:57.736Z,100.00
2023-05-24T09:35:26.870Z,100.00
2023-05-24T09:37:59.928Z,100.00
2023-05-24T09:40:28.195Z,100.00
2023-05-24T09:43:10.700Z,100.00
2023-05-24T09:45:47.448Z,100.00
2023-05-24T09:48:16.676Z,100.00
2023-05-24T09:50:45.755Z,100.00
2023-05-24T09:53:13.799Z,100.00
2023-05-24T09:55:41.630Z,100.00
2023-05-24T09:58:12.974Z,100.00
2023-05-24T10:00:43.430Z,100.00
2023-05-24T10:03:12.583Z,100.00
2023-05-24T10:05:43.098Z,100.00
2023-05-24T10:08:11.659Z,100.00
2023-05-24T10:10:41.596Z,100.00
2023-05-24T10:13:11.728Z,100.00
2023-05-24T10:15:39.779Z,100.00
2023-05-24T10:18:11.349Z,100.00
2023-05-24T10:20:42.152Z,100.00
2023-05-24T10:23:13.183Z,100.00
2023-05-24T10:25:44.759Z,100.00
2023-05-24T10:28:23.513Z,100.00
2023-05-24T10:30:58.315Z,100.00
2023-05-24T10:33:28.902Z,100.00
2023-05-24T10:35:58.952Z,100.00
2023-05-24T10:38:29.730Z,100.00
2023-05-24T10:41:02.940Z,100.00
2023-05-24T10:43:39.714Z,100.00
2023-05-24T10:46:11.988Z,100.00
2023-05-24T10:48:40.792Z,100.00
2023-05-24T10:51:38.632Z,100.00
2023-05-24T10:54:19.281Z,100.00
2023-05-24T10:56:50.795Z,100.00
2023-05-24T10:59:45.427Z,100.00
2023-05-24T11:02:16.484Z,100.00
2023-05-24T11:04:56.623Z,100.00
2023-05-24T11:07:24.863Z,100.00
2023-05-24T11:09:57.308Z,100.00
2023-05-24T11:12:31.659Z,100.00
2023-05-24T11:15:02.936Z,100.00
2023-05-24T11:17:31.114Z,100.00
2023-05-24T11:20:00.676Z,100.00
2023-05-24T11:22:28.637Z,100.00
2023-05-24T11:25:03.946Z,100.00
2023-05-24T11:27:35.346Z,100.00
2023-05-24T11:30:09.638Z,100.00
2023-05-24T11:32:42.286Z,100.00
2023-05-24T11:35:11.694Z,99.92
2023-05-24T11:37:46.815Z,98.76
2023-05-24T11:40:33.984Z,100.00
2023-05-24T11:43:03.520Z,100.00
2023-05-24T11:45:32.723Z,100.00
2023-05-24T11:48:04.747Z,100.00
2023-05-24T11:50:45.884Z,100.00
2023-05-24T11:53:17.889Z,100.00
2023-05-24T11:55:45.810Z,100.00
2023-05-24T11:58:18.525Z,100.00
2023-05-24T12:00:48.208Z,100.00
2023-05-24T12:03:17.272Z,95.60
2023-05-24T12:05:45.003Z,100.00
2023-05-24T12:08:15.440Z,98.79
2023-05-24T12:10:43.788Z,100.00
2023-05-24T12:13:19.990Z,100.00
2023-05-24T12:15:51.406Z,96.86
2023-05-24T12:18:20.724Z,98.97
2023-05-24T12:20:48.396Z,99.52
2023-05-24T12:23:16.883Z,100.00
2023-05-24T12:25:44.689Z,99.03
2023-05-24T12:28:12.253Z,97.86
2023-05-24T12:30:43.362Z,100.00
2023-05-24T12:33:12.519Z,97.79
2023-05-24T12:35:41.332Z,96.26
2023-05-24T12:38:09.341Z,93.63
2023-05-24T12:40:36.986Z,95.53
2023-05-24T12:43:05.058Z,95.31
2023-05-24T12:45:32.733Z,96.30
2023-05-24T12:48:02.604Z,95.03
2023-05-24T12:50:31.897Z,95.64
2023-05-24T12:52:59.422Z,97.47
2023-05-24T12:55:27.337Z,100.00
2023-05-24T12:57:55.966Z,100.00
2023-05-24T13:00:24.068Z,100.00
2023-05-24T13:02:53.052Z,100.00
2023-05-24T13:05:20.908Z,99.37
2023-05-24T13:07:50.826Z,97.75
2023-05-24T13:10:19.457Z,98.63
2023-05-24T13:12:47.150Z,96.20
2023-05-24T13:15:15.154Z,97.67
2023-05-24T13:17:48.641Z,98.14
2023-05-24T13:20:20.969Z,97.33
2023-05-24T13:22:50.222Z,98.56
2023-05-24T13:25:17.860Z,95.08
2023-05-24T13:27:48.857Z,96.48
2023-05-24T13:30:17.232Z,94.22
2023-05-24T13:32:47.387Z,95.15
2023-05-24T13:35:20.548Z,92.54
2023-05-24T13:37:49.471Z,93.22
2023-05-24T13:40:22.093Z,95.52
2023-05-24T13:42:49.734Z,93.83
2023-05-24T13:45:18.950Z,92.59
2023-05-24T13:47:46.756Z,95.42
2023-05-24T13:50:16.511Z,99.08
2023-05-24T13:52:44.263Z,97.56
2023-05-24T13:55:13.148Z,98.53
2023-05-24T14:00:18.211Z,96.98
2023-05-24T14:02:48.331Z,96.74
2023-05-24T14:05:27.354Z,96.23
2023-05-24T14:08:02.656Z,92.93
2023-05-24T14:10:30.274Z,86.52
2023-05-24T14:16:48.069Z,85.99
2023-05-24T14:19:19.402Z,88.37
2023-05-24T14:21:47.006Z,88.73
2023-05-24T14:24:17.484Z,89.46
2023-05-24T14:26:47.566Z,89.08
2023-05-24T14:29:17.866Z,91.79
2023-05-24T14:31:48.726Z,92.54
2023-05-24T14:34:19.723Z,96.68
2023-05-24T14:36:51.099Z,96.77
2023-05-24T14:39:21.991Z,98.58
2023-05-24T14:41:50.948Z,97.15
2023-05-24T14:44:21.584Z,98.65
2023-05-24T14:46:55.447Z,100.00
2023-05-24T14:49:23.555Z,97.67
2023-05-24T14:51:56.004Z,97.10
2023-05-24T14:54:24.286Z,100.00
2023-05-24T14:56:54.868Z,98.60
2023-05-24T14:59:26.087Z,100.00
2023-05-24T15:01:55.124Z,100.00
2023-05-24T15:04:25.434Z,98.47
2023-05-24T15:07:08.060Z,97.67
2023-05-24T15:09:38.296Z,94.08
2023-05-24T15:12:08.736Z,93.49
2023-05-24T15:14:37.321Z,95.69
2023-05-24T15:17:06.555Z,95.32
2023-05-24T15:19:34.099Z,95.87
2023-05-24T15:22:01.646Z,91.66
2023-05-24T15:24:29.198Z,92.94
2023-05-24T15:26:57.391Z,94.00
2023-05-24T15:29:24.945Z,92.63
2023-05-24T15:31:52.501Z,92.53
2023-05-24T15:34:23.692Z,92.05
2023-05-24T15:36:51.676Z,89.92
2023-05-24T15:39:19.346Z,86.93
2023-05-24T15:41:47.943Z,85.52
2023-05-24T15:44:15.492Z,85.70
2023-05-24T15:46:43.556Z,82.40
2023-05-24T15:49:11.158Z,82.80
2023-05-24T15:54:10.661Z,78.18
2023-05-24T15:56:38.275Z,81.81
2023-05-24T15:59:05.862Z,77.98
2023-05-24T16:01:33.540Z,79.75
2023-05-24T16:04:01.420Z,79.74
2023-05-24T16:06:28.997Z,76.37
2023-05-24T16:08:57.996Z,75.11
2023-05-24T16:11:31.628Z,77.33
2023-05-24T16:13:59.272Z,81.53
2023-05-24T16:16:28.708Z,79.79
2023-05-24T16:28:29.589Z,84.99
2023-05-24T16:30:57.682Z,85.02
2023-05-24T16:33:25.485Z,84.95
2023-05-24T16:35:56.419Z,88.76
2023-05-24T16:38:24.284Z,90.60
2023-05-24T16:40:51.853Z,92.62
2023-05-24T16:43:22.410Z,95.65
2023-05-24T16:45:51.864Z,91.34
2023-05-24T16:48:21.466Z,90.87
2023-05-24T16:50:51.580Z,95.17
2023-05-24T16:53:20.372Z,96.07
2023-05-24T16:55:55.846Z,97.16
2023-05-24T16:58:30.962Z,100.00
2023-05-24T17:01:00.063Z,100.00
2023-05-24T17:03:33.177Z,100.00
2023-05-24T17:06:03.858Z,100.00
2023-05-24T17:08:32.674Z,100.00
2023-05-24T17:11:03.183Z,100.00
2023-05-24T17:13:30.849Z,100.00
2023-05-24T17:16:00.509Z,100.00
2023-05-24T17:18:33.884Z,100.00
2023-05-24T17:21:01.843Z,100.00
2023-05-24T17:23:30.779Z,100.00
2023-05-24T17:26:01.311Z,100.00
2023-05-24T17:28:28.877Z,100.00
2023-05-24T17:30:56.609Z,100.00
2023-05-24T17:33:29.213Z,100.00
2023-05-24T17:35:57.257Z,100.00
2023-05-24T17:38:26.463Z,100.00
2023-05-24T17:40:57.011Z,100.00
2023-05-24T17:43:28.717Z,100.00
2023-05-24T17:46:03.305Z,100.00
2023-05-24T17:48:32.785Z,100.00
2023-05-24T17:51:03.675Z,100.00
2023-05-24T17:53:33.434Z,100.00
2023-05-24T17:56:06.582Z,100.00
2023-05-24T17:58:36.378Z,100.00
2023-05-24T18:01:08.075Z,100.00
2023-05-24T18:03:41.693Z,100.00
2023-05-24T18:06:09.470Z,100.00
2023-05-24T18:08:38.572Z,100.00
2023-05-24T18:11:11.291Z,100.00
2023-05-24T18:13:39.295Z,100.00
2023-05-24T18:16:07.097Z,100.00
2023-05-24T18:18:35.594Z,100.00
2023-05-24T18:21:04.881Z,100.00
2023-05-24T18:23:34.213Z,100.00
2023-05-24T18:26:03.159Z,100.00
2023-05-24T18:28:32.513Z,100.00
2023-05-24T18:31:00.256Z,100.00
2023-05-24T18:33:28.065Z,100.00
2023-05-24T18:36:01.065Z,100.00
2023-05-24T18:38:29.981Z,100.00
2023-05-24T18:41:04.795Z,100.00
2023-05-24T18:43:33.525Z,100.00
2023-05-24T18:46:02.572Z,100.00
2023-05-24T18:48:30.248Z,100.00
2023-05-24T18:51:00.926Z,100.00
2023-05-24T18:53:32.576Z,100.00
2023-05-24T18:56:00.152Z,100.00
2023-05-24T19:01:41.608Z,100.00
2023-05-24T19:04:11.647Z,100.00
2023-05-24T19:06:39.280Z,100.00
2023-05-24T19:09:08.277Z,100.00
2023-05-24T19:11:37.249Z,100.00
2023-05-24T19:14:04.841Z,100.00
2023-05-24T19:16:32.578Z,100.00
2023-05-24T19:19:00.415Z,100.00
2023-05-24T19:21:28.562Z,100.00
2023-05-24T19:23:56.166Z,100.00
2023-05-24T19:26:29.102Z,100.00
2023-05-24T19:28:56.671Z,100.00
2023-05-24T19:31:24.566Z,100.00
2023-05-24T19:34:00.388Z,100.00
2023-05-24T19:36:30.355Z,100.00
2023-05-24T19:38:58.009Z,100.00
2023-05-24T19:41:30.820Z,100.00
2023-05-24T19:43:58.753Z,100.00
2023-05-24T19:46:26.464Z,100.00
2023-05-24T19:48:54.210Z,100.00
2023-05-24T19:51:24.232Z,100.00
2023-05-24T19:53:51.835Z,100.00
2023-05-24T19:56:20.617Z,100.00
2023-05-24T19:58:50.155Z,100.00
2023-05-24T20:01:17.701Z,100.00
2023-05-24T20:03:50.589Z,100.00
2023-05-24T20:06:18.359Z,100.00
2023-05-24T20:08:46.214Z,100.00
2023-05-24T20:11:16.329Z,100.00
2023-05-24T20:13:43.994Z,100.00
2023-05-24T20:16:15.556Z,100.00
2023-05-24T20:18:43.445Z,100.00
2023-05-24T20:21:11.487Z,100.00
2023-05-24T20:23:39.041Z,100.00
2023-05-24T20:26:06.813Z,100.00
2023-05-24T20:28:34.349Z,100.00
2023-05-24T20:31:03.360Z,100.00
2023-05-24T20:33:38.632Z,100.00
2023-05-24T20:36:06.695Z,100.00
2023-05-24T20:38:34.348Z,100.00
2023-05-24T20:41:03.601Z,100.00
2023-05-24T20:43:31.183Z,100.00
2023-05-24T20:45:58.748Z,100.00
2023-05-24T20:48:26.377Z,100.00
2023-05-24T20:50:55.286Z,100.00
2023-05-24T20:53:22.843Z,100.00
2023-05-24T20:55:50.437Z,100.00
2023-05-24T20:58:19.097Z,100.00
2023-05-24T21:00:46.699Z,100.00
2023-05-24T21:03:14.487Z,100.00
2023-05-24T21:05:42.371Z,100.00
2023-05-24T21:08:11.493Z,100.00
2023-05-24T21:10:39.094Z,100.00
2023-05-24T21:13:06.726Z,100.00
2023-05-24T21:15:35.372Z,100.00
2023-05-24T21:18:03.858Z,100.00
2023-05-24T21:20:31.671Z,100.00
2023-05-24T21:22:59.302Z,100.00
2023-05-24T21:25:28.239Z,100.00
2023-05-24T21:27:56.114Z,100.00
2023-05-24T21:30:23.731Z,100.00
2023-05-24T21:32:51.348Z,100.00
2023-05-24T21:35:18.904Z,100.00
2023-05-24T21:37:46.511Z,100.00
2023-05-24T21:40:14.116Z,100.00
2023-05-24T21:42:43.346Z,100.00
2023-05-24T21:45:11.397Z,100.00
2023-05-24T21:47:39.016Z,100.00
2023-05-24T21:50:07.206Z,100.00
2023-05-24T21:52:34.799Z,100.00
2023-05-24T21:55:02.465Z,100.00
2023-05-24T21:57:29.986Z,100.00
2023-05-24T21:59:59.006Z,100.00
2023-05-24T22:02:26.671Z,100.00
2023-05-24T22:04:54.352Z,100.00
2023-05-24T22:07:21.975Z,100.00
2023-05-24T22:09:49.594Z,100.00
2023-05-24T22:12:17.232Z,100.00
2023-05-24T22:14:44.876Z,100.00
2023-05-24T22:17:14.211Z,100.00
2023-05-24T22:19:41.848Z,100.00
2023-05-24T22:22:09.910Z,100.00
2023-05-24T22:24:37.518Z,100.00
2023-05-24T22:27:05.331Z,100.00
2023-05-24T22:29:32.952Z,100.00
2023-05-24T22:32:00.587Z,100.00
2023-05-24T22:34:29.749Z,100.00
2023-05-24T22:36:57.796Z,100.00
2023-05-24T22:39:25.544Z,100.00
2023-05-24T22:41:53.437Z,100.00
2023-05-24T22:44:21.144Z,100.00
2023-05-24T22:46:49.896Z,100.00
2023-05-24T22:49:19.334Z,100.00
2023-05-24T22:51:48.759Z,100.00
2023-05-24T22:54:16.379Z,100.00
2023-05-24T22:56:44.023Z,100.00
2023-05-24T22:59:11.789Z,100.00
2023-05-24T23:01:39.409Z,100.00
2023-05-24T23:06:39.089Z,100.00
2023-05-24T23:09:08.249Z,100.00
2023-05-24T23:11:35.873Z,100.00
2023-05-24T23:14:03.469Z,100.00
2023-05-24T23:16:34.006Z,100.00
2023-05-24T23:19:01.960Z,100.00
2023-05-24T23:21:29.598Z,100.00
2023-05-24T23:23:57.214Z,100.00
2023-05-24T23:26:26.147Z,100.00
2023-05-24T23:28:53.762Z,100.00
2023-05-24T23:31:24.331Z,100.00
2023-05-24T23:33:52.220Z,100.00
2023-05-24T23:36:19.774Z,100.00
2023-05-24T23:38:47.725Z,100.00
2023-05-24T23:41:16.792Z,100.00
2023-05-24T23:43:45.724Z,100.00
2023-05-24T23:46:13.290Z,100.00
2023-05-24T23:48:41.294Z,100.00
2023-05-24T23:51:10.165Z,100.00
2023-05-24T23:53:37.788Z,100.00
2023-05-24T23:56:05.694Z,100.00
2023-05-24T23:58:33.580Z,100.00
